Time;durP1;ratioP1;P1;durP2;ratioP2;P2;SDS_P1;SDS_P2;PMS_P1;PMS_P2;Temp;Humidity;BMP_temperature;BMP_pressure;BME280_temperature;BME280_humidity;BME280_pressure;Samples;Min_cycle;Max_cycle;Signal;HPM_P1;HPM_P2
2021/11/01 00:01:56;;;;;;;;;;;;;;;28.82;75.54;101170.06;5008022;28;69868;-41
2021/11/01 00:04:27;;;;;;;;;;;;;;;28.79;76.79;101175.88;5011582;28;65667;-41
2021/11/01 00:06:58;;;;;;;;;;;;;;;28.81;75.50;101181.91;5014550;28;68918;-42
2021/11/01 00:09:29;;;;;;;;;;;;;;;28.87;77.24;101178.41;5011690;28;66680;-42
2021/11/01 00:12:00;;;;;;;;;;;;;;;28.86;76.68;101182.16;5015547;28;70219;-41
2021/11/01 00:14:30;;;;;;;;;;;;;;;28.82;77.50;101175.47;5027935;28;67153;-41
2021/11/01 00:17:01;;;;;;;;;;;;;;;28.82;76.37;101183.56;5008466;28;69858;-41
2021/11/01 00:19:31;;;;;;;;;;;;;;;28.89;74.16;101183.59;5013690;28;66811;-42
2021/11/01 00:22:02;;;;;;;;;;;;;;;28.94;75.58;101184.66;5015760;28;70475;-41
2021/11/01 00:24:32;;;;;;;;;;;;;;;29.00;76.91;101185.72;5015787;28;64952;-41
2021/11/01 00:27:06;;;;;;;;;;;;;;;29.01;77.57;101179.31;5015146;28;70267;-39
2021/11/01 00:29:43;;;;;;;;;;;;;;;29.03;75.41;101177.28;5015841;28;66214;-39
2021/11/01 00:32:19;;;;;;;;;;;;;;;29.10;75.69;101177.28;4994322;28;69193;-38
2021/11/01 00:35:09;;;;;;;;;;;;;;;29.12;76.03;101175.22;5016128;28;66823;-40
2021/11/01 00:37:55;;;;;;;;;;;;;;;29.19;76.36;101173.38;5005704;28;70281;-39
2021/11/01 00:40:32;;;;;;;;;;;;;;;29.25;76.38;101183.38;4991483;28;66444;-39
2021/11/01 00:43:08;;;;;;;;;;;;;;;29.26;76.73;101176.94;5014045;28;70108;-39
2021/11/01 00:45:46;;;;;;;;;;;;;;;29.33;75.16;101185.88;5007518;28;65473;-39
2021/11/01 00:49:04;;;;;;;;;;;;;;;29.17;75.95;101154.69;5008723;28;70168;-40
2021/11/01 00:51:54;;;;;;;;;;;;;;;29.44;76.04;101191.75;5007010;28;66312;-39
2021/11/01 00:54:43;;;;;;;;;;;;;;;29.46;76.30;101195.09;5010944;28;69229;-39
2021/11/01 00:57:19;;;;;;;;;;;;;;;29.49;74.87;101191.97;5006988;28;66325;-40
2021/11/01 00:59:59;;;;;;;;;;;;;;;29.53;75.88;101199.50;5009651;28;70354;-39
2021/11/01 01:03:08;;;;;;;;;;;;;;;29.57;75.97;101205.31;5007490;28;65268;-40
2021/11/01 01:06:23;;;;;;;;;;;;;;;29.60;75.70;101199.50;4999406;28;69933;-40
2021/11/01 01:09:04;;;;;;;;;;;;;;;29.63;76.10;101199.13;5012342;28;65140;-39
2021/11/01 01:12:08;;;;;;;;;;;;;;;29.66;75.11;101196.00;5010212;28;70417;-39
2021/11/01 01:15:01;;;;;;;;;;;;;;;29.70;74.50;101197.28;5000992;28;66328;-38
2021/11/01 01:18:21;;;;;;;;;;;;;;;29.73;75.26;101199.56;4990263;28;69553;-39
2021/11/01 01:24:39;;;;;;;;;;;;;;;29.80;76.43;101207.69;5010089;28;70100;-39
2021/11/01 01:27:36;;;;;;;;;;;;;;;29.82;74.17;101208.31;5013448;28;66329;-41
2021/11/01 01:30:30;;;;;;;;;;;;;;;29.84;73.53;101207.06;4991346;28;70248;-40
2021/11/01 01:33:13;;;;;;;;;;;;;;;29.88;73.71;101201.25;4991415;28;66213;-40
2021/11/01 01:36:20;;;;;;;;;;;;;;;29.91;73.64;101208.94;5002090;28;70182;-40
2021/11/01 01:39:28;;;;;;;;;;;;;;;29.94;73.80;101212.06;5013597;28;65438;-40
2021/11/01 01:42:11;;;;;;;;;;;;;;;29.96;73.63;101204.59;4959576;28;70268;-40
2021/11/01 01:45:16;;;;;;;;;;;;;;;30.00;73.46;101205.00;5009281;28;65355;-40
2021/11/01 01:48:13;;;;;;;;;;;;;;;30.03;73.74;101210.00;5001175;28;70110;-40
2021/11/01 01:51:00;;;;;;;;;;;;;;;30.06;73.35;101206.88;5011344;28;65067;-40
2021/11/01 01:54:15;;;;;;;;;;;;;;;30.06;73.20;101198.75;5008058;28;70030;-40
2021/11/01 01:57:20;;;;;;;;;;;;;;;30.10;73.42;101210.84;5017516;28;66396;-41
2021/11/01 02:03:24;;;;;;;;;;;;;;;30.16;73.13;101220.00;4989840;28;66253;-40
2021/11/01 02:06:13;;;;;;;;;;;;;;;30.17;73.30;101209.00;5010115;28;70253;-40
2021/11/01 02:09:00;;;;;;;;;;;;;;;30.20;73.00;101211.28;5005165;28;65614;-39
2021/11/01 02:12:00;;;;;;;;;;;;;;;30.22;73.39;101220.03;4994796;28;69355;-40
2021/11/01 02:15:00;;;;;;;;;;;;;;;30.26;73.27;101210.47;5010844;28;66253;-40
2021/11/01 02:18:09;;;;;;;;;;;;;;;30.27;73.19;101214.81;5010294;28;70477;-40
2021/11/01 02:21:16;;;;;;;;;;;;;;;30.29;72.56;101220.03;5025084;28;67270;-39
2021/11/01 02:24:14;;;;;;;;;;;;;;;30.35;71.51;101219.22;5005869;28;69406;-40
2021/11/01 02:27:12;;;;;;;;;;;;;;;30.38;71.05;101213.38;5000858;28;66515;-40
2021/11/01 02:29:57;;;;;;;;;;;;;;;30.39;71.04;101216.91;4992994;28;69962;-40
2021/11/01 02:32:33;;;;;;;;;;;;;;;30.40;70.06;101215.88;5008580;28;65476;-40
2021/11/01 02:35:19;;;;;;;;;;;;;;;30.45;69.84;101208.78;4993087;28;69385;-45
2021/11/01 02:38:07;;;;;;;;;;;;;;;30.45;69.75;101202.53;5002538;28;65610;-41
2021/11/01 02:40:45;;;;;;;;;;;;;;;30.46;70.25;101201.50;4989508;28;69070;-40
2021/11/01 02:43:37;;;;;;;;;;;;;;;30.47;69.56;101200.44;4997486;28;65023;-40
2021/11/01 02:46:28;;;;;;;;;;;;;;;30.49;69.87;101203.78;4986830;28;70662;-40
2021/11/01 02:49:14;;;;;;;;;;;;;;;30.51;69.83;101207.13;5006647;28;65791;-39
2021/11/01 02:52:12;;;;;;;;;;;;;;;30.52;69.95;101199.84;5006670;28;69852;-40
2021/11/01 02:55:06;;;;;;;;;;;;;;;30.55;69.33;101196.69;4996328;28;66586;-40
2021/11/01 02:57:54;;;;;;;;;;;;;;;30.58;69.73;101197.09;5008062;28;69874;-40
2021/11/01 03:00:32;;;;;;;;;;;;;;;30.58;69.31;101180.84;5006165;28;65693;-39
2021/11/01 03:03:09;;;;;;;;;;;;;;;30.62;69.27;101176.69;4997575;28;70304;-39
2021/11/01 03:05:44;;;;;;;;;;;;;;;30.63;69.30;101162.09;5011821;28;66755;-39
2021/11/01 03:08:25;;;;;;;;;;;;;;;30.65;68.93;101165.44;5009314;28;70467;-40
2021/11/01 03:11:13;;;;;;;;;;;;;;;30.67;68.71;101159.81;5007057;28;66003;-40
2021/11/01 03:13:48;;;;;;;;;;;;;;;30.71;68.96;101153.75;5010107;28;69755;-40
2021/11/01 03:16:25;;;;;;;;;;;;;;;30.75;68.43;101159.56;4997051;28;66236;-41
2021/11/01 03:19:05;;;;;;;;;;;;;;;30.76;68.78;101153.13;5011007;28;69655;-40
2021/11/01 03:21:44;;;;;;;;;;;;;;;30.80;68.32;101146.25;5008780;28;66771;-40
2021/11/01 03:24:23;;;;;;;;;;;;;;;30.84;68.47;101146.66;5007168;28;70127;-41
2021/11/01 03:26:58;;;;;;;;;;;;;;;30.86;68.16;101141.88;5010731;28;66601;-40
2021/11/01 03:29:35;;;;;;;;;;;;;;;30.90;67.80;101135.00;5009800;28;69352;-40
2021/11/01 03:32:07;;;;;;;;;;;;;;;30.92;67.09;101128.31;5009669;28;66564;-38
2021/11/01 03:34:40;;;;;;;;;;;;;;;30.96;67.17;101131.41;5010702;28;70567;-39
2021/11/01 03:37:15;;;;;;;;;;;;;;;30.99;67.29;101127.44;5011632;28;67426;-39
2021/11/01 03:39:48;;;;;;;;;;;;;;;31.02;67.04;101127.00;5006656;28;70265;-39
2021/11/01 03:42:21;;;;;;;;;;;;;;;31.05;66.72;101111.16;5008955;28;66467;-39
2021/11/01 03:44:58;;;;;;;;;;;;;;;31.09;66.37;101111.53;5012661;28;70517;-37
2021/11/01 03:47:32;;;;;;;;;;;;;;;31.12;65.54;101111.97;5007817;28;66498;-38
2021/11/01 03:50:15;;;;;;;;;;;;;;;31.15;65.03;101106.09;5010957;28;67807;-38
2021/11/01 03:52:51;;;;;;;;;;;;;;;31.10;64.60;101089.66;5007406;28;65691;-38
2021/11/01 03:55:28;;;;;;;;;;;;;;;31.22;65.62;101091.69;5008223;28;69431;-37
2021/11/01 03:58:00;;;;;;;;;;;;;;;31.16;65.70;101080.66;5002887;28;66146;-37
2021/11/01 04:01:01;;;;;;;;;;;;;;;31.27;65.37;101103.53;5008477;28;69513;-36
2021/11/01 04:04:06;;;;;;;;;;;;;;;31.30;65.25;101088.72;5001252;28;67086;-37
2021/11/01 04:07:07;;;;;;;;;;;;;;;31.34;65.05;101087.22;5007091;28;69494;-37
2021/11/01 04:10:11;;;;;;;;;;;;;;;31.37;64.93;101084.09;5007577;28;66313;-37
2021/11/01 04:13:00;;;;;;;;;;;;;;;31.41;65.53;101071.78;4967250;28;70540;-37
2021/11/01 04:16:09;;;;;;;;;;;;;;;31.44;65.39;101071.34;5008620;28;66445;-37
2021/11/01 04:18:53;;;;;;;;;;;;;;;31.49;65.30;101074.22;5007379;28;69047;-37
2021/11/01 04:21:23;;;;;;;;;;;;;;;31.51;64.88;101066.72;5001405;28;66154;-37
2021/11/01 04:23:56;;;;;;;;;;;;;;;31.54;64.65;101066.25;5007428;28;69447;-37
2021/11/01 04:26:43;;;;;;;;;;;;;;;31.59;65.01;101057.44;5009082;28;65248;-37
2021/11/01 04:30:07;;;;;;;;;;;;;;;31.64;64.76;101045.94;5003454;28;69918;-37
2021/11/01 04:33:25;;;;;;;;;;;;;;;31.67;64.38;101037.38;4986303;28;66264;-37
2021/11/01 04:36:17;;;;;;;;;;;;;;;31.71;64.10;101034.00;4952892;28;69932;-37
2021/11/01 04:43:19;;;;;;;;;;;;;;;31.82;63.98;101018.88;4961070;28;69412;-36
2021/11/01 04:55:41;;;;;;;;;;;;;;;31.98;63.19;100996.63;4965330;28;70050;-37
2021/11/01 04:59:02;;;;;;;;;;;;;;;32.01;62.80;100990.75;4945048;28;66641;-38
2021/11/01 05:02:03;;;;;;;;;;;;;;;32.07;62.65;100993.59;4965983;28;69330;-37
2021/11/01 05:04:36;;;;;;;;;;;;;;;32.09;63.15;100976.03;4985991;28;66475;-37
2021/11/01 05:07:09;;;;;;;;;;;;;;;32.07;61.26;100977.31;5006696;28;69853;-37
2021/11/01 05:10:12;;;;;;;;;;;;;;;32.09;60.74;100967.88;5003863;28;66600;-37
2021/11/01 05:13:46;;;;;;;;;;;;;;;32.11;60.87;100957.66;5007475;28;69936;-37
2021/11/01 05:20:39;;;;;;;;;;;;;;;32.21;61.23;100951.69;4944118;28;70315;-38
2021/11/01 05:24:00;;;;;;;;;;;;;;;32.26;58.67;100951.81;4947221;28;65763;-36
2021/11/01 05:31:07;;;;;;;;;;;;;;;32.34;59.10;100929.78;4911314;28;66070;-36
2021/11/01 05:34:00;;;;;;;;;;;;;;;32.40;59.66;100920.75;4958327;28;70408;-37
2021/11/01 05:36:33;;;;;;;;;;;;;;;32.42;59.19;100915.88;4963959;28;65940;-37
2021/11/01 05:39:13;;;;;;;;;;;;;;;32.46;60.28;100908.16;4949589;28;70107;-36
2021/11/01 05:42:38;;;;;;;;;;;;;;;32.49;60.40;100900.38;4936982;28;65753;-36
2021/11/01 05:45:10;;;;;;;;;;;;;;;32.53;60.75;100900.75;4984876;28;70369;-38
2021/11/01 05:47:44;;;;;;;;;;;;;;;32.45;61.15;100882.84;4981365;28;65919;-37
2021/11/01 05:50:14;;;;;;;;;;;;;;;32.59;61.26;100888.13;4982795;28;70215;-37
2021/11/01 05:52:45;;;;;;;;;;;;;;;32.56;61.71;100873.13;4964457;28;65996;-41
2021/11/01 05:58:13;;;;;;;;;;;;;;;32.62;58.26;100877.63;4987653;28;66045;-37
2021/11/01 06:03:39;;;;;;;;;;;;;;;32.65;57.86;100865.47;4987789;28;66362;-36
2021/11/01 06:15:30;;;;;;;;;;;;;;;32.78;57.80;100843.53;4988094;28;65400;-37
2021/11/01 06:18:02;;;;;;;;;;;;;;;32.77;57.34;100841.88;5001309;28;69006;-37
2021/11/01 06:20:34;;;;;;;;;;;;;;;32.75;56.58;100833.13;5005961;28;66316;-37
2021/11/01 06:23:04;;;;;;;;;;;;;;;32.81;57.70;100826.75;5009761;28;69317;-37
2021/11/01 06:25:36;;;;;;;;;;;;;;;32.84;58.69;100815.41;5007318;28;65811;-36
2021/11/01 06:28:12;;;;;;;;;;;;;;;32.87;59.51;100806.78;5004996;28;69466;-37
2021/11/01 06:31:07;;;;;;;;;;;;;;;32.88;59.94;100811.19;5007685;28;65731;-36
2021/11/01 06:34:45;;;;;;;;;;;;;;;32.87;59.98;100814.94;5029936;28;70358;-36
2021/11/01 07:14:55;;;;;;;;;;;;;;;33.25;62.29;100750.31;5006685;28;70528;-37
2021/11/01 07:17:58;;;;;;;;;;;;;;;33.29;62.67;100762.34;5001159;28;66422;-37
2021/11/01 07:20:55;;;;;;;;;;;;;;;33.32;62.34;100757.28;5010300;28;70128;-37
2021/11/01 08:36:31;;;;;;;;;;;;;;;34.51;60.96;100730.38;4988401;28;66574;-37
2021/11/01 08:43:27;;;;;;;;;;;;;;;34.57;61.48;100732.94;4986424;28;66601;-37
2021/11/01 09:26:01;;;;;;;;;;;;;;;34.94;60.75;100751.47;4854513;29;66391;-37
2021/11/01 09:38:42;;;;;;;;;;;;;;;33.63;63.61;100779.69;4989285;28;66085;-38
2021/11/01 09:41:14;;;;;;;;;;;;;;;33.52;64.33;100777.81;5020326;28;69295;-39
2021/11/01 09:43:49;;;;;;;;;;;;;;;33.41;64.37;100775.94;5014361;28;65901;-37
2021/11/01 09:46:21;;;;;;;;;;;;;;;33.34;65.40;100782.31;5022582;28;70557;-38
2021/11/01 09:49:09;;;;;;;;;;;;;;;33.31;65.15;100781.97;5012995;28;65568;-38
2021/11/01 09:51:47;;;;;;;;;;;;;;;33.26;65.30;100779.97;5016509;28;70241;-38
2021/11/01 09:54:24;;;;;;;;;;;;;;;33.22;65.61;100773.38;4999802;28;65821;-38
2021/11/01 09:57:03;;;;;;;;;;;;;;;33.22;65.68;100778.81;5016663;28;70436;-38
2021/11/01 09:59:34;;;;;;;;;;;;;;;33.20;66.04;100791.00;5020856;28;66379;-37
2021/11/01 10:02:08;;;;;;;;;;;;;;;33.17;66.16;100789.56;5019315;28;70109;-38
2021/11/01 10:04:41;;;;;;;;;;;;;;;33.16;66.81;100796.09;5014538;28;65404;-37
2021/11/01 10:07:30;;;;;;;;;;;;;;;33.11;67.13;100793.25;5004483;28;69406;-35
2021/11/01 10:10:05;;;;;;;;;;;;;;;33.10;67.98;100802.47;5014537;28;66622;-35
2021/11/01 10:12:38;;;;;;;;;;;;;;;33.09;67.73;100811.66;5014940;28;70353;-36
2021/11/01 10:18:00;;;;;;;;;;;;;;;33.07;67.92;100819.22;5016377;28;70683;-35
2021/11/01 10:20:33;;;;;;;;;;;;;;;33.04;68.18;100817.00;5016041;28;67045;-37
2021/11/01 10:23:24;;;;;;;;;;;;;;;32.96;68.32;100795.56;5017602;28;70722;-36
2021/11/01 10:26:06;;;;;;;;;;;;;;;33.02;68.62;100806.38;5001237;28;65198;-37
2021/11/01 10:28:37;;;;;;;;;;;;;;;33.02;69.63;100806.38;5011505;28;70190;-36
2021/11/01 10:31:12;;;;;;;;;;;;;;;33.01;69.41;100814.75;4992279;28;65027;-36
2021/11/01 10:33:47;;;;;;;;;;;;;;;32.99;69.73;100812.25;5012326;28;69828;-36
2021/11/01 10:36:28;;;;;;;;;;;;;;;33.34;68.71;100809.50;5009946;28;66491;-36
2021/11/01 10:39:06;;;;;;;;;;;;;;;33.55;68.12;100810.81;5013832;28;70136;-36
2021/11/01 10:59:17;;;;;;;;;;;;;;;34.04;65.99;100834.88;5010348;28;66617;-35
2021/11/01 11:13:12;;;;;;;;;;;;;;;33.41;65.55;100862.97;5010963;28;69603;-38
2021/11/01 11:15:45;;;;;;;;;;;;;;;33.12;64.90;100879.13;5008116;28;66063;-37
2021/11/01 11:29:50;;;;;;;;;;;;;;;32.05;63.48;100899.69;5004692;28;70446;-37
2021/11/01 11:49:09;;;;;;;;;;;;;;;31.70;60.81;100912.16;5011875;28;66635;-38
2021/11/01 11:51:53;;;;;;;;;;;;;;;31.79;59.67;100910.84;5008741;28;70291;-38
2021/11/01 11:54:32;;;;;;;;;;;;;;;31.82;58.78;100910.38;5023319;28;65288;-38
2021/11/01 11:57:04;;;;;;;;;;;;;;;31.79;57.45;100916.25;5007536;28;70306;-37
2021/11/01 11:59:35;;;;;;;;;;;;;;;31.83;57.62;100922.88;5008338;28;66250;-37
2021/11/01 12:02:08;;;;;;;;;;;;;;;31.86;56.91;100919.72;5010722;28;70157;-37
2021/11/01 12:04:46;;;;;;;;;;;;;;;31.89;56.97;100916.53;5009950;28;66631;-36
2021/11/01 12:07:17;;;;;;;;;;;;;;;31.87;57.15;100915.94;5012739;28;69747;-36
2021/11/01 12:09:57;;;;;;;;;;;;;;;31.89;56.45;100924.69;5007573;28;66234;-36
2021/11/01 12:13:15;;;;;;;;;;;;;;;31.86;56.00;100918.88;5006812;28;70292;-36
2021/11/01 12:18:31;;;;;;;;;;;;;;;31.82;56.20;100926.66;4999136;28;69873;-37
2021/11/01 12:21:03;;;;;;;;;;;;;;;31.79;55.95;100927.94;5009809;28;66456;-38
2021/11/01 12:23:37;;;;;;;;;;;;;;;31.75;55.52;100931.31;5006211;28;68718;-38
2021/11/01 12:26:13;;;;;;;;;;;;;;;31.74;55.80;100930.50;5003089;28;65613;-43
2021/11/01 12:28:49;;;;;;;;;;;;;;;31.66;54.68;100933.50;5018902;28;69450;-37
2021/11/01 12:31:20;;;;;;;;;;;;;;;31.67;55.00;100931.59;5008303;28;65963;-37
2021/11/01 12:34:01;;;;;;;;;;;;;;;31.66;54.85;100932.66;5009443;28;70306;-37
2021/11/01 12:39:40;;;;;;;;;;;;;;;31.62;54.20;100937.69;5005762;28;69765;-37
2021/11/01 12:57:04;;;;;;;;;;;;;;;30.83;56.76;101023.13;5009986;28;69760;-37
2021/11/01 12:59:42;;;;;;;;;;;;;;;30.77;56.78;101032.09;4996904;28;66617;-37
2021/11/01 13:02:36;;;;;;;;;;;;;;;30.73;57.02;101026.28;5007940;28;69672;-36
2021/11/01 13:05:13;;;;;;;;;;;;;;;30.69;57.29;101025.88;5013396;28;66269;-39
2021/11/01 13:08:01;;;;;;;;;;;;;;;30.69;56.95;101033.97;5009974;28;70240;-39
2021/11/01 13:10:56;;;;;;;;;;;;;;;30.67;57.29;101041.50;5008901;28;65223;-38
2021/11/01 13:19:25;;;;;;;;;;;;;;;30.60;57.87;101054.25;5007464;28;70052;-38
2021/11/01 13:22:17;;;;;;;;;;;;;;;30.60;57.85;101062.38;5009771;28;66454;-38
2021/11/01 13:35:15;;;;;;;;;;;;;;;30.57;57.01;101081.75;5010056;28;67861;-38
2021/11/01 13:38:07;;;;;;;;;;;;;;;30.59;56.63;101079.66;5008725;28;70256;-38
2021/11/01 13:40:51;;;;;;;;;;;;;;;30.55;56.11;101083.81;5008533;28;67201;-38
2021/11/01 13:43:44;;;;;;;;;;;;;;;30.53;55.61;101088.59;5006003;28;70085;-37
2021/11/01 13:46:55;;;;;;;;;;;;;;;30.50;55.18;101097.16;4992466;28;66019;-38
2021/11/01 13:49:48;;;;;;;;;;;;;;;30.48;55.58;101091.16;5006602;28;70148;-37
2021/11/01 13:52:39;;;;;;;;;;;;;;;30.39;54.92;101078.88;5007170;28;66451;-37
2021/11/01 13:55:44;;;;;;;;;;;;;;;30.42;54.45;101084.72;5007858;28;69397;-37
2021/11/01 13:59:11;;;;;;;;;;;;;;;30.40;54.84;101097.63;5004247;28;66301;-37
2021/11/01 14:13:34;;;;;;;;;;;;;;;30.27;52.99;101130.13;5007236;28;69988;-38
2021/11/01 14:19:22;;;;;;;;;;;;;;;30.20;52.47;101119.28;4998787;28;70930;-38
2021/11/01 14:36:07;;;;;;;;;;;;;;;30.03;51.62;101104.50;5003488;28;71805;-38
2021/11/01 14:56:26;;;;;;;;;;;;;;;29.94;51.28;101122.00;5012007;28;66299;-39
2021/11/01 14:58:52;;;;;;;;;;;;;;;29.92;51.15;101127.63;5008892;28;70426;-38
2021/11/01 15:05:33;;;;;;;;;;;;;;;29.88;51.65;101125.53;5012376;28;70260;-38
2021/11/01 15:10:15;;;;;;;;;;;;;;;29.82;51.47;101117.19;5006898;28;70445;-39
2021/11/01 15:13:21;;;;;;;;;;;;;;;29.79;51.39;101123.03;5009217;28;65720;-39
2021/11/01 15:21:14;;;;;;;;;;;;;;;29.78;50.73;101140.31;5011913;28;70550;-39
2021/11/01 15:27:01;;;;;;;;;;;;;;;29.74;51.08;101130.91;5010825;28;70285;-38
2021/11/01 15:38:05;;;;;;;;;;;;;;;29.63;51.40;101131.53;5012018;28;69381;-39
2021/11/01 16:19:58;;;;;;;;;;;;;;;29.84;48.83;101115.13;5005967;28;66414;-38
2021/11/01 16:22:29;;;;;;;;;;;;;;;29.81;49.28;101115.56;5018118;28;69264;-38
2021/11/01 16:25:00;;;;;;;;;;;;;;;29.81;48.63;101120.09;5014030;28;65335;-38
2021/11/01 16:27:30;;;;;;;;;;;;;;;29.71;48.94;101103.47;5018228;28;69068;-37
2021/11/01 16:30:23;;;;;;;;;;;;;;;29.78;49.06;101115.97;5018621;28;65713;-38
2021/11/01 16:32:56;;;;;;;;;;;;;;;29.76;48.52;101112.63;5012625;28;69970;-38
2021/11/01 16:35:33;;;;;;;;;;;;;;;29.75;48.66;101105.53;5009199;28;66334;-38
2021/11/01 16:38:10;;;;;;;;;;;;;;;29.73;48.95;101110.34;5010313;28;69222;-39
2021/11/01 16:40:41;;;;;;;;;;;;;;;29.70;48.98;101112.59;5011798;28;67004;-37
2021/11/01 16:43:16;;;;;;;;;;;;;;;29.70;49.02;101108.06;5008522;28;69581;-38
2021/11/01 16:45:49;;;;;;;;;;;;;;;29.67;48.19;101108.47;5018171;28;65532;-38
2021/11/01 16:48:21;;;;;;;;;;;;;;;29.66;47.96;101095.16;5010789;28;69826;-37
2021/11/01 16:50:53;;;;;;;;;;;;;;;29.64;48.72;101091.81;5015578;28;66509;-39
2021/11/01 16:53:23;;;;;;;;;;;;;;;29.64;48.09;101103.44;5015243;28;70301;-38
2021/11/01 16:56:03;;;;;;;;;;;;;;;29.61;48.22;101093.03;5012935;28;66648;-39
2021/11/01 16:58:43;;;;;;;;;;;;;;;29.59;48.46;101079.72;5004535;28;70049;-38
2021/11/01 17:01:20;;;;;;;;;;;;;;;29.59;48.06;101084.31;5012959;28;66453;-38
2021/11/01 17:03:56;;;;;;;;;;;;;;;29.56;48.34;101063.94;5016554;28;70231;-37
2021/11/01 17:23:12;;;;;;;;;;;;;;;29.43;48.65;101063.91;5016584;28;65878;-39
2021/11/01 17:26:09;;;;;;;;;;;;;;;29.41;48.60;101060.56;5007839;28;70868;-38
2021/11/01 17:29:07;;;;;;;;;;;;;;;29.38;48.12;101053.72;5011121;28;66847;-38
2021/11/01 18:41:47;;;;;;;;;;;;;;;28.96;48.60;100993.56;5017836;28;65779;-37
2021/11/01 18:53:06;;;;;;;;;;;;;;;28.92;48.33;100997.72;5013245;28;66455;-37
2021/11/01 18:55:37;;;;;;;;;;;;;;;28.90;48.35;100997.09;5008960;28;70558;-38
2021/11/01 18:58:10;;;;;;;;;;;;;;;28.89;48.93;100992.72;5013707;28;66024;-39
2021/11/01 19:00:43;;;;;;;;;;;;;;;28.88;48.92;100991.03;5006609;28;69365;-37
2021/11/01 19:03:15;;;;;;;;;;;;;;;28.88;48.75;100984.81;5017930;28;65820;-37
2021/11/01 19:05:55;;;;;;;;;;;;;;;28.87;48.73;100991.25;5010270;28;69993;-38
2021/11/01 19:12:01;;;;;;;;;;;;;;;28.83;48.87;100981.88;5021226;28;70025;-39
2021/11/01 20:05:36;;;;;;;;;;;;;;;28.59;49.21;100948.22;5014698;28;65440;-38
2021/11/01 21:27:08;;;;;;;;;;;;;;;28.19;49.11;100959.63;5013089;28;69787;-37
2021/11/01 21:29:38;;;;;;;;;;;;;;;28.18;49.03;100954.44;5017115;28;66293;-37
2021/11/01 21:32:09;;;;;;;;;;;;;;;28.18;49.02;100957.16;5012073;28;71516;-37
2021/11/01 21:34:54;;;;;;;;;;;;;;;28.18;49.14;100957.16;5012989;28;66194;-38
2021/11/01 21:37:25;;;;;;;;;;;;;;;28.16;49.20;100959.19;5016741;28;70803;-38
2021/11/01 21:39:58;;;;;;;;;;;;;;;28.15;48.95;100962.94;5018393;28;66234;-37
2021/11/01 21:42:29;;;;;;;;;;;;;;;28.14;49.22;100961.25;5017594;28;70450;-37
2021/11/01 21:45:00;;;;;;;;;;;;;;;28.11;48.38;100965.22;5014524;28;67032;-37
2021/11/01 21:47:31;;;;;;;;;;;;;;;28.10;48.50;100965.41;5018395;28;69050;-37
2021/11/01 21:50:01;;;;;;;;;;;;;;;28.07;48.56;100967.47;5003348;28;66374;-37
2021/11/01 21:52:32;;;;;;;;;;;;;;;28.07;48.46;100967.47;5009266;28;70730;-37
2021/11/01 21:55:06;;;;;;;;;;;;;;;28.07;48.43;100970.16;5004552;28;66545;-37
2021/11/01 21:57:47;;;;;;;;;;;;;;;27.97;47.72;100961.63;5008685;28;70369;-37
2021/11/01 22:20:43;;;;;;;;;;;;;;;27.97;47.99;100977.78;5006657;28;69765;-38
2021/11/01 22:22:44;;;;;;;;;;;;;;;27.96;48.31;100976.09;5007941;28;66671;-38
2021/11/01 22:34:00;;;;;;;;;;;;;;;27.92;48.60;100996.41;5019802;28;65604;-37
2021/11/01 22:39:29;;;;;;;;;;;;;;;27.89;48.75;101001.34;5012120;28;66701;-38
2021/11/01 22:55:56;;;;;;;;;;;;;;;27.85;48.40;101019.78;5019929;28;65397;-38
2021/11/01 22:58:28;;;;;;;;;;;;;;;27.85;48.43;101027.88;5018159;28;69224;-37
2021/11/01 23:01:06;;;;;;;;;;;;;;;27.77;48.57;101030.69;5019474;28;64848;-37
2021/11/01 23:31:30;;;;;;;;;;;;;;;28.74;56.84;101059.53;5019050;28;70287;-37
2021/11/01 23:34:03;;;;;;;;;;;;;;;28.81;57.15;101055.00;5018556;28;66791;-36
2021/11/01 23:36:34;;;;;;;;;;;;;;;28.86;57.58;101060.63;5019282;28;70984;-37
2021/11/01 23:39:07;;;;;;;;;;;;;;;28.92;58.29;101061.69;5008597;28;67074;-37
2021/11/01 23:41:40;;;;;;;;;;;;;;;29.27;56.34;101065.13;5012900;28;70088;-35
2021/11/01 23:44:11;;;;;;;;;;;;;;;29.48;56.63;101071.41;5005703;28;66798;-35
2021/11/01 23:46:41;;;;;;;;;;;;;;;29.60;58.81;101080.56;5006562;28;71111;-35
2021/11/01 23:49:11;;;;;;;;;;;;;;;29.64;59.42;101076.41;5011007;28;66865;-35
2021/11/01 23:51:49;;;;;;;;;;;;;;;29.66;63.55;101087.03;5013947;28;69378;-36
2021/11/01 23:56:53;;;;;;;;;;;;;;;29.51;67.07;101093.44;5015609;28;69493;-36
2021/11/01 23:59:24;;;;;;;;;;;;;;;29.47;67.38;101096.75;5019008;28;67063;-37
